Time;durP1;ratioP1;P1;durP2;ratioP2;P2;SDS_P1;SDS_P2;PMS_P1;PMS_P2;Temp;Humidity;BMP_temperature;BMP_pressure;BME280_temperature;BME280_humidity;BME280_pressure;Samples;Min_cycle;Max_cycle;Signal;HPM_P1;HPM_P2
2023/01/07 00:01:26;;;;;;;6.93;5.78;;;;;;;6.29;98.28;101361.72;7395161;19;20557;-70
2023/01/07 00:03:55;;;;;;;8.38;6.13;;;;;;;6.28;98.01;101367.81;7393972;19;20085;-70
2023/01/07 00:06:25;;;;;;;7.43;5.95;;;;;;;6.28;98.13;101359.09;7396255;19;20089;-70
2023/01/07 00:08:58;;;;;;;7.07;6.35;;;;;;;6.27;98.06;101357.34;7396071;19;20553;-70
2023/01/07 00:11:28;;;;;;;10.15;6.70;;;;;;;6.25;98.41;101354.75;7396762;19;20073;-70
2023/01/07 00:13:58;;;;;;;9.65;7.15;;;;;;;6.25;98.33;101359.09;7394535;19;20511;-70
2023/01/07 00:16:29;;;;;;;7.93;7.05;;;;;;;6.22;98.25;101346.91;7395884;19;20022;-69
2023/01/07 00:18:59;;;;;;;7.32;6.53;;;;;;;6.21;98.22;101334.75;7394527;19;20018;-70
2023/01/07 00:21:29;;;;;;;6.68;5.97;;;;;;;6.19;98.43;101331.25;7395629;19;20011;-70
2023/01/07 00:24:02;;;;;;;6.72;6.03;;;;;;;6.18;98.51;101332.13;7393739;19;20078;-70
2023/01/07 00:26:33;;;;;;;9.40;7.00;;;;;;;6.17;98.67;101331.25;7395838;19;20028;-69
2023/01/07 00:29:01;;;;;;;7.45;6.75;;;;;;;6.18;98.80;101334.75;7395310;19;20018;-71
2023/01/07 00:31:32;;;;;;;8.52;6.72;;;;;;;6.17;98.90;101344.28;7394986;19;20478;-68
2023/01/07 00:34:10;;;;;;;7.60;6.63;;;;;;;6.18;98.88;101345.16;7393815;19;20094;-69
2023/01/07 00:36:41;;;;;;;8.50;6.45;;;;;;;6.18;98.81;101337.34;7395640;19;20022;-70
2023/01/07 00:39:16;;;;;;;8.20;6.57;;;;;;;6.19;98.96;101341.66;7395635;19;20070;-70
2023/01/07 00:42:53;;;;;;;;;;;;;;;6.21;99.02;101336.50;7393843;19;20083;-70
2023/01/07 00:44:36;;;;;;;8.02;6.55;;;;;;;6.21;98.87;101347.78;7392936;19;19942;-70
2023/01/07 00:47:05;;;;;;;11.13;7.50;;;;;;;6.23;99.03;101338.25;7395427;19;20010;-70
2023/01/07 00:49:33;;;;;;;7.85;6.60;;;;;;;6.24;98.94;101339.97;7394848;19;20014;-70
2023/01/07 00:52:02;;;;;;;9.73;6.65;;;;;;;6.28;99.18;101344.34;7394391;19;20424;-69
2023/01/07 00:54:33;;;;;;;8.18;6.78;;;;;;;6.30;98.96;101355.63;7393223;19;20074;-70
2023/01/07 00:57:01;;;;;;;8.07;6.70;;;;;;;6.33;99.28;101353.06;7393381;19;20502;-70
2023/01/07 00:59:30;;;;;;;9.77;6.68;;;;;;;6.34;99.11;101344.38;7394576;19;20094;-70
2023/01/07 01:01:58;;;;;;;8.32;7.53;;;;;;;6.39;98.95;101340.94;7393536;19;20082;-70
2023/01/07 01:04:26;;;;;;;8.68;7.07;;;;;;;6.41;99.14;101337.47;7392864;19;20093;-70
2023/01/07 01:06:55;;;;;;;8.35;6.97;;;;;;;6.42;99.00;101336.59;7394784;19;20078;-70
2023/01/07 01:09:25;;;;;;;10.32;7.32;;;;;;;6.44;99.04;101340.06;7392686;19;20078;-70
2023/01/07 01:11:56;;;;;;;7.00;6.30;;;;;;;6.47;98.98;101339.22;7394494;19;20015;-70
2023/01/07 01:14:24;;;;;;;8.30;6.53;;;;;;;6.49;99.08;101342.72;7392983;19;20044;-70
2023/01/07 01:16:53;;;;;;;8.98;6.88;;;;;;;6.51;99.08;101343.59;7398592;19;20089;-70
2023/01/07 01:19:21;;;;;;;8.68;7.72;;;;;;;6.55;99.09;101344.50;7401794;19;20018;-69
2023/01/07 01:21:50;;;;;;;11.95;8.43;;;;;;;6.56;98.97;101335.78;7400802;19;20509;-69
2023/01/07 01:24:18;;;;;;;8.27;7.45;;;;;;;6.59;98.65;101339.28;7399352;19;20074;-70
2023/01/07 01:26:46;;;;;;;10.00;7.00;;;;;;;6.60;98.61;101333.19;7401438;19;20086;-70
2023/01/07 01:29:17;;;;;;;9.77;7.13;;;;;;;6.61;98.80;101331.44;7398089;19;20074;-70
2023/01/07 01:31:47;;;;;;;8.23;7.38;;;;;;;6.61;98.64;101332.34;7401696;19;20022;-70
2023/01/07 01:34:15;;;;;;;7.05;6.28;;;;;;;6.64;98.52;101339.31;7398822;19;20017;-71
2023/01/07 01:36:44;;;;;;;7.93;6.47;;;;;;;6.64;98.41;101339.31;7401609;19;20090;-70
2023/01/07 01:39:13;;;;;;;7.07;6.30;;;;;;;6.64;98.48;101332.34;7401232;19;20078;-70
2023/01/07 01:41:41;;;;;;;9.65;6.43;;;;;;;6.65;98.47;101328.88;7401182;19;20419;-70
2023/01/07 01:44:51;;;;;;;7.07;5.80;;;;;;;6.66;98.40;101335.84;7399314;19;20018;-70
2023/01/07 01:47:34;;;;;;;6.70;5.88;;;;;;;6.65;98.35;101328.00;7400682;19;20028;-70
2023/01/07 01:50:12;;;;;;;8.07;6.28;;;;;;;6.64;98.06;101319.31;7401730;19;20067;-70
2023/01/07 01:52:45;;;;;;;6.82;6.07;;;;;;;6.63;98.27;101314.09;7401209;19;20073;-70
2023/01/07 01:55:18;;;;;;;8.67;5.93;;;;;;;6.60;97.92;101325.38;7401487;19;20078;-71
2023/01/07 01:57:50;;;;;;;7.55;5.82;;;;;;;6.57;97.86;101319.28;7397989;19;20537;-70
2023/01/07 02:00:19;;;;;;;6.78;5.80;;;;;;;6.53;97.75;101315.78;7397986;19;20429;-70
2023/01/07 02:02:53;;;;;;;7.10;5.57;;;;;;;6.49;98.09;101314.88;7399089;19;20073;-70
2023/01/07 02:05:22;;;;;;;6.90;6.20;;;;;;;6.46;97.98;101306.22;7401096;19;20019;-70
2023/01/07 02:07:51;;;;;;;6.55;5.78;;;;;;;6.43;97.92;101301.88;7400177;19;20014;-70
2023/01/07 02:10:22;;;;;;;6.72;5.75;;;;;;;6.40;97.90;101303.56;7400518;19;20073;-70
2023/01/07 02:15:25;;;;;;;6.65;5.78;;;;;;;6.31;97.85;101304.41;7394004;19;20037;-69
2023/01/07 02:18:19;;;;;;;6.95;6.18;;;;;;;6.30;97.94;101306.13;7400681;19;20019;-69
2023/01/07 02:21:12;;;;;;;8.75;6.45;;;;;;;6.24;97.83;101300.88;7400338;19;20090;-68
2023/01/07 02:24:13;;;;;;;7.18;5.55;;;;;;;6.21;98.08;101300.88;7397649;19;20014;-69
2023/01/07 02:27:14;;;;;;;7.10;5.68;;;;;;;6.17;97.98;101299.97;7399528;19;20074;-68
2023/01/07 02:30:21;;;;;;;6.85;6.15;;;;;;;6.14;98.01;101293.88;7397292;19;20078;-69
2023/01/07 02:33:19;;;;;;;8.85;6.28;;;;;;;6.11;97.99;101301.69;7398055;19;20086;-69
2023/01/07 02:36:20;;;;;;;7.32;6.50;;;;;;;6.07;98.31;101290.38;7399619;19;20032;-69
2023/01/07 02:39:04;;;;;;;7.70;6.10;;;;;;;6.06;98.45;101288.63;7396739;19;20018;-69
2023/01/07 02:41:45;;;;;;;8.02;5.78;;;;;;;6.05;98.46;101286.03;7397686;19;20070;-69
2023/01/07 02:44:22;;;;;;;6.75;6.03;;;;;;;6.02;98.55;101285.13;7396959;19;20094;-69
2023/01/07 02:46:57;;;;;;;7.18;6.47;;;;;;;6.02;98.71;101289.47;7397377;19;20093;-69
2023/01/07 02:49:28;;;;;;;7.88;6.18;;;;;;;6.01;98.49;101290.34;7397335;19;20035;-68
2023/01/07 02:51:57;;;;;;;6.95;5.45;;;;;;;6.00;98.69;101286.88;7397314;19;20022;-69
2023/01/07 02:54:28;;;;;;;7.05;6.15;;;;;;;5.99;98.74;101287.72;7396213;19;20549;-69
2023/01/07 02:57:15;;;;;;;9.43;6.32;;;;;;;5.98;98.54;101283.38;7397204;19;20082;-69
2023/01/07 03:00:08;;;;;;;7.25;6.53;;;;;;;5.98;98.87;101287.69;7397474;19;20022;-68
2023/01/07 03:03:01;;;;;;;6.43;5.15;;;;;;;5.95;98.51;101293.75;7396987;19;20028;-68
2023/01/07 03:05:43;;;;;;;8.10;6.63;;;;;;;5.94;98.66;101288.50;7396087;19;20011;-68
2023/01/07 03:08:36;;;;;;;7.80;6.43;;;;;;;5.93;98.65;101284.19;7396065;19;20494;-68
2023/01/07 03:11:06;;;;;;;8.05;5.95;;;;;;;5.89;98.95;101283.31;7396696;19;20094;-68
2023/01/07 03:13:39;;;;;;;7.30;6.10;;;;;;;5.88;99.06;101281.56;7396435;19;20014;-68
2023/01/07 03:16:13;;;;;;;8.52;6.75;;;;;;;5.85;98.93;101272.00;7396889;19;20082;-68
2023/01/07 03:18:46;;;;;;;8.40;6.30;;;;;;;5.86;98.95;101280.66;7398091;19;20078;-68
2023/01/07 03:21:22;;;;;;;8.82;6.65;;;;;;;5.84;99.25;101279.78;7397677;19;20082;-68
2023/01/07 03:23:54;;;;;;;8.77;6.22;;;;;;;5.84;99.46;101279.78;7396471;19;20014;-68
2023/01/07 03:26:26;;;;;;;9.05;6.75;;;;;;;5.86;99.26;101288.47;7396033;19;20093;-68
2023/01/07 03:28:57;;;;;;;8.48;7.18;;;;;;;5.88;99.85;101282.41;7397473;19;20430;-68
2023/01/07 03:31:26;;;;;;;7.03;6.32;;;;;;;5.89;99.45;101278.09;7398243;19;20014;-68
2023/01/07 03:34:00;;;;;;;8.63;6.78;;;;;;;5.92;99.51;101272.88;7395639;19;20101;-68
2023/01/07 03:36:35;;;;;;;8.40;6.95;;;;;;;5.95;99.80;101272.03;7395635;19;20445;-68
2023/01/07 03:39:04;;;;;;;10.02;7.00;;;;;;;5.98;100.00;101274.66;7393954;19;20014;-69
2023/01/07 03:44:13;;;;;;;8.82;6.93;;;;;;;6.03;99.94;101268.63;7399359;19;20014;-69
2023/01/07 03:46:42;;;;;;;7.63;6.68;;;;;;;6.07;100.00;101268.69;7398132;19;20015;-69
2023/01/07 03:49:10;;;;;;;7.85;6.90;;;;;;;6.10;99.83;101274.75;7395448;19;20082;-69
2023/01/07 03:51:42;;;;;;;11.23;7.15;;;;;;;6.15;99.88;101272.19;7396664;19;20506;-69
2023/01/07 03:54:10;;;;;;;8.65;7.25;;;;;;;6.16;100.00;101266.09;7394742;19;20073;-69
2023/01/07 03:56:39;;;;;;;7.22;6.18;;;;;;;6.19;99.62;101264.41;7396793;19;20018;-68
2023/01/07 03:59:07;;;;;;;8.20;6.50;;;;;;;6.25;99.74;101267.88;7394794;19;20028;-69
2023/01/07 04:01:36;;;;;;;7.80;6.40;;;;;;;6.26;99.60;101259.22;7395037;19;20164;-69
2023/01/07 04:04:05;;;;;;;9.85;6.93;;;;;;;6.27;99.76;101256.59;7394896;19;20035;-69
2023/01/07 04:06:33;;;;;;;6.57;5.82;;;;;;;6.29;99.74;101249.69;7395146;19;20022;-68
2023/01/07 04:09:04;;;;;;;9.52;6.85;;;;;;;6.30;99.49;101254.00;7396273;19;20077;-69
2023/01/07 04:11:33;;;;;;;6.78;6.03;;;;;;;6.32;99.39;101246.22;7394395;19;20250;-69
2023/01/07 04:14:01;;;;;;;7.63;6.13;;;;;;;6.33;99.17;101242.72;7394243;19;20086;-69
2023/01/07 04:16:30;;;;;;;8.02;6.32;;;;;;;6.34;99.19;101250.56;7394333;19;20098;-69
2023/01/07 04:18:58;;;;;;;6.75;5.85;;;;;;;6.37;99.25;101247.09;7394671;19;20081;-68
2023/01/07 04:21:27;;;;;;;8.73;6.65;;;;;;;6.38;99.12;101245.34;7396145;19;20078;-69
2023/01/07 04:23:55;;;;;;;8.50;6.78;;;;;;;6.39;98.80;101252.31;7394194;19;20022;-69
2023/01/07 04:26:26;;;;;;;7.35;6.57;;;;;;;6.40;98.88;101243.63;7393995;19;20072;-69
2023/01/07 04:28:55;;;;;;;8.02;6.18;;;;;;;6.40;98.84;101244.47;7393739;19;20085;-69
2023/01/07 04:31:23;;;;;;;10.38;7.07;;;;;;;6.41;98.64;101241.03;7394572;19;20037;-69
2023/01/07 04:33:52;;;;;;;7.18;6.22;;;;;;;6.42;98.93;101237.56;7394909;19;20081;-68
2023/01/07 04:36:20;;;;;;;6.97;6.28;;;;;;;6.42;98.71;101232.34;7393618;19;20526;-68
2023/01/07 04:38:49;;;;;;;6.88;6.18;;;;;;;6.44;98.61;101232.34;7393853;19;20038;-69
2023/01/07 04:41:17;;;;;;;6.22;5.63;;;;;;;6.45;98.87;101237.56;7394697;19;20026;-69
2023/01/07 04:43:48;;;;;;;6.72;6.05;;;;;;;6.47;98.57;101234.94;7394479;19;20086;-69
2023/01/07 04:46:17;;;;;;;7.00;6.00;;;;;;;6.46;98.51;101228.88;7395018;19;20074;-68
2023/01/07 04:48:45;;;;;;;7.65;5.97;;;;;;;6.47;98.61;101228.00;7393798;19;20026;-68
2023/01/07 04:51:14;;;;;;;6.85;5.90;;;;;;;6.49;98.63;101225.41;7393699;19;20030;-69
2023/01/07 04:53:42;;;;;;;8.07;5.55;;;;;;;6.49;98.61;101217.59;7393611;19;20078;-69
2023/01/07 04:56:11;;;;;;;7.07;6.20;;;;;;;6.49;98.71;101213.22;7393018;19;20024;-68
2023/01/07 04:58:39;;;;;;;6.10;5.38;;;;;;;6.49;98.64;101215.84;7393441;19;20018;-69
2023/01/07 05:01:10;;;;;;;6.18;5.57;;;;;;;6.49;98.75;101214.97;7393332;19;20023;-68
2023/01/07 05:03:39;;;;;;;6.75;6.05;;;;;;;6.49;98.46;101223.66;7393335;19;20035;-69
2023/01/07 05:06:08;;;;;;;6.45;5.75;;;;;;;6.48;98.69;101215.84;7393246;19;20035;-69
2023/01/07 05:08:36;;;;;;;7.35;5.45;;;;;;;6.47;98.52;101219.31;7393102;19;20023;-69
2023/01/07 05:11:05;;;;;;;8.35;6.03;;;;;;;6.47;98.58;101208.88;7392940;19;20022;-69
2023/01/07 05:13:34;;;;;;;7.82;5.25;;;;;;;6.46;98.83;101199.34;7391709;19;20475;-68
2023/01/07 05:16:03;;;;;;;6.68;5.65;;;;;;;6.45;98.61;101200.19;7393281;19;20018;-69
2023/01/07 05:18:34;;;;;;;5.90;4.80;;;;;;;6.44;99.04;101199.31;7392711;19;20018;-69
2023/01/07 05:21:03;;;;;;;9.27;5.68;;;;;;;6.44;98.90;101198.44;7393044;19;20019;-69
2023/01/07 05:23:31;;;;;;;5.30;4.80;;;;;;;6.45;98.74;101200.19;7393833;19;20048;-70
2023/01/07 05:26:00;;;;;;;5.28;4.80;;;;;;;6.44;98.77;101191.50;7394092;19;20022;-70
2023/01/07 05:28:28;;;;;;;8.38;5.30;;;;;;;6.46;98.93;101186.31;7392039;19;20378;-69
2023/01/07 05:30:57;;;;;;;6.97;5.20;;;;;;;6.46;99.14;101183.69;7392097;19;20423;-69
2023/01/07 05:33:25;;;;;;;6.47;4.35;;;;;;;6.48;99.13;101184.56;7391919;19;20031;-69
2023/01/07 05:35:56;;;;;;;5.47;4.97;;;;;;;6.48;99.04;101181.94;7392393;19;20022;-70
2023/01/07 05:38:25;;;;;;;6.43;5.47;;;;;;;6.50;99.09;101182.84;7392420;19;20106;-68
2023/01/07 05:40:53;;;;;;;7.22;5.22;;;;;;;6.50;98.94;101188.03;7392074;19;20036;-69
2023/01/07 05:43:22;;;;;;;6.65;5.22;;;;;;;6.53;99.26;101195.84;7393185;19;20039;-68
2023/01/07 05:45:51;;;;;;;7.18;4.93;;;;;;;6.54;98.98;101195.00;7393898;19;20018;-69
2023/01/07 05:48:19;;;;;;;5.00;4.38;;;;;;;6.57;98.96;101194.13;7391425;19;20493;-69
2023/01/07 05:50:48;;;;;;;5.22;3.83;;;;;;;6.59;98.90;101202.84;7391803;19;20019;-69
2023/01/07 05:53:19;;;;;;;4.90;4.40;;;;;;;6.60;98.89;101210.66;7391513;19;20023;-68
2023/01/07 05:55:48;;;;;;;5.03;4.28;;;;;;;6.59;99.04;101201.09;7391640;19;20042;-69
2023/01/07 05:58:16;;;;;;;6.38;4.75;;;;;;;6.63;99.02;101207.19;7393685;19;20018;-68
2023/01/07 06:00:44;;;;;;;5.97;4.50;;;;;;;6.65;98.75;101208.94;7391177;19;20019;-69
2023/01/07 06:03:13;;;;;;;4.97;4.47;;;;;;;6.67;99.08;101204.59;7395920;19;20022;-68
2023/01/07 06:05:42;;;;;;;5.25;4.65;;;;;;;6.68;98.53;101198.53;7398209;19;20014;-68
2023/01/07 06:08:10;;;;;;;5.80;3.92;;;;;;;6.71;98.53;101207.19;7397798;19;20022;-68
2023/01/07 06:10:43;;;;;;;6.03;5.15;;;;;;;6.71;98.48;101208.09;7397991;19;20090;-69
2023/01/07 06:13:11;;;;;;;5.22;4.18;;;;;;;6.73;98.40;101208.09;7397325;19;20022;-69
2023/01/07 06:15:40;;;;;;;5.78;4.30;;;;;;;6.73;98.27;101203.72;7397172;19;20018;-69
2023/01/07 06:18:08;;;;;;;5.57;4.10;;;;;;;6.74;98.28;101202.00;7400287;19;20027;-69
2023/01/07 06:20:36;;;;;;;7.13;4.15;;;;;;;6.75;98.02;101208.94;7399961;19;20078;-69
2023/01/07 06:23:05;;;;;;;4.32;3.92;;;;;;;6.76;98.16;101202.84;7396964;19;20028;-69
2023/01/07 06:25:33;;;;;;;4.22;3.83;;;;;;;6.76;97.99;101201.13;7396956;19;20010;-69
2023/01/07 06:28:05;;;;;;;4.25;3.85;;;;;;;6.76;97.97;101208.97;7399792;19;20018;-70
2023/01/07 06:30:33;;;;;;;5.13;3.90;;;;;;;6.77;97.68;101204.59;7397518;19;20082;-71
2023/01/07 06:33:04;;;;;;;4.63;4.18;;;;;;;6.78;98.01;101206.34;7397234;19;20104;-69
2023/01/07 06:35:33;;;;;;;4.32;3.92;;;;;;;6.79;97.62;101208.09;7397845;19;20338;-70
2023/01/07 06:38:02;;;;;;;5.30;3.70;;;;;;;6.79;97.96;101203.72;7397102;19;20039;-70
2023/01/07 06:40:31;;;;;;;4.38;3.97;;;;;;;6.78;97.62;101215.03;7399456;19;20039;-69
2023/01/07 06:42:59;;;;;;;4.50;4.10;;;;;;;6.81;97.85;101209.84;7397265;19;20019;-70
2023/01/07 06:45:30;;;;;;;4.40;3.97;;;;;;;6.81;97.33;101206.34;7396899;19;20514;-70
2023/01/07 06:47:59;;;;;;;6.32;4.38;;;;;;;6.81;97.65;101201.13;7399807;19;20023;-70
2023/01/07 06:50:27;;;;;;;4.43;4.03;;;;;;;6.81;97.52;101209.84;7396774;19;20042;-70
2023/01/07 06:52:56;;;;;;;4.55;4.07;;;;;;;6.82;97.43;101208.09;7399002;19;20086;-69
2023/01/07 06:55:25;;;;;;;4.68;4.10;;;;;;;6.81;97.19;101204.63;7396277;19;20416;-69
2023/01/07 06:57:53;;;;;;;5.97;3.38;;;;;;;6.82;97.33;101200.25;7396295;19;20027;-69
2023/01/07 07:00:22;;;;;;;5.10;4.25;;;;;;;6.81;97.20;101203.72;7396058;19;20019;-69
2023/01/07 07:02:53;;;;;;;5.00;3.63;;;;;;;6.80;97.31;101204.63;7398581;19;20035;-68
2023/01/07 07:05:21;;;;;;;6.07;3.67;;;;;;;6.78;97.18;101194.16;7396041;19;20081;-69
2023/01/07 07:07:50;;;;;;;3.80;3.45;;;;;;;6.75;96.92;101204.59;7395729;19;20011;-69
2023/01/07 07:10:18;;;;;;;3.72;3.33;;;;;;;6.75;97.08;101203.72;7399557;19;20026;-69
2023/01/07 07:12:47;;;;;;;3.80;3.38;;;;;;;6.73;97.14;101205.47;7395572;19;20462;-69
2023/01/07 07:15:15;;;;;;;3.55;3.22;;;;;;;6.71;96.86;101199.38;7394159;19;20506;-68
2023/01/07 07:17:44;;;;;;;3.92;3.20;;;;;;;6.69;96.86;101200.22;7395786;19;20015;-69
2023/01/07 07:20:15;;;;;;;4.10;2.97;;;;;;;6.67;96.76;101201.09;7396020;19;20023;-69
2023/01/07 07:22:46;;;;;;;6.28;3.10;;;;;;;6.64;96.74;101203.72;7396445;19;20091;-70
2023/01/07 07:25:15;;;;;;;4.05;3.55;;;;;;;6.62;96.91;101203.72;7396197;19;20223;-68
2023/01/07 07:27:46;;;;;;;3.65;3.35;;;;;;;6.59;96.88;101206.31;7395856;19;20015;-68
2023/01/07 07:30:16;;;;;;;3.35;3.00;;;;;;;6.58;96.81;101207.16;7396147;19;20039;-70
2023/01/07 07:32:45;;;;;;;3.10;2.80;;;;;;;6.57;96.69;101213.28;7396260;19;20019;-69
2023/01/07 07:35:16;;;;;;;5.07;2.90;;;;;;;6.57;96.30;101208.06;7395558;19;20074;-68
2023/01/07 07:37:44;;;;;;;3.28;2.97;;;;;;;6.56;96.82;101214.13;7398372;19;20093;-68
2023/01/07 07:40:14;;;;;;;4.00;3.47;;;;;;;6.56;96.54;101208.03;7395592;19;20035;-68
2023/01/07 07:42:42;;;;;;;3.28;2.92;;;;;;;6.55;96.55;101206.31;7394206;19;20482;-68
2023/01/07 07:45:14;;;;;;;2.90;2.60;;;;;;;6.54;96.54;101204.56;7394987;19;20522;-68
2023/01/07 07:47:43;;;;;;;3.55;3.13;;;;;;;6.52;96.61;101212.38;7394816;19;20022;-69
2023/01/07 07:50:11;;;;;;;3.40;2.75;;;;;;;6.54;96.79;101212.38;7394726;19;20355;-69
2023/01/07 07:52:42;;;;;;;6.55;3.90;;;;;;;6.54;96.70;101215.00;7395136;19;20078;-68
2023/01/07 07:55:11;;;;;;;3.15;2.85;;;;;;;6.53;96.89;101208.91;7394723;19;20022;-69
2023/01/07 07:57:40;;;;;;;3.22;2.85;;;;;;;6.54;96.67;101209.78;7395169;19;20035;-70
2023/01/07 08:00:10;;;;;;;3.40;2.60;;;;;;;6.54;96.71;101208.03;7394816;19;20018;-69
2023/01/07 08:02:38;;;;;;;3.20;2.70;;;;;;;6.54;96.68;101208.03;7395488;19;20018;-69
2023/01/07 08:05:10;;;;;;;3.22;2.70;;;;;;;6.55;96.76;101208.91;7394287;19;20035;-70
2023/01/07 08:07:38;;;;;;;3.92;3.30;;;;;;;6.56;96.99;101210.63;7395388;19;20024;-73
2023/01/07 08:10:10;;;;;;;4.28;3.17;;;;;;;6.59;96.83;101206.31;7396221;19;20026;-73
2023/01/07 08:12:39;;;;;;;8.60;5.22;;;;;;;6.61;96.85;101203.69;7395071;19;20018;-74
2023/01/07 08:15:09;;;;;;;7.13;4.78;;;;;;;6.65;96.53;101208.94;7394440;19;20090;-73
2023/01/07 08:17:44;;;;;;;5.60;4.30;;;;;;;6.67;96.38;101212.41;7394882;19;20007;-73
2023/01/07 08:20:14;;;;;;;4.85;3.60;;;;;;;6.71;96.47;101210.69;7394307;19;20050;-73
2023/01/07 08:22:49;;;;;;;5.10;2.92;;;;;;;6.77;96.59;101208.06;7394339;19;20018;-74
2023/01/07 08:25:20;;;;;;;5.18;3.03;;;;;;;6.82;96.55;101208.09;7394784;19;20392;-73
2023/01/07 08:27:49;;;;;;;3.38;2.20;;;;;;;6.90;96.37;101210.69;7394081;19;20541;-73
2023/01/07 08:30:19;;;;;;;2.97;2.55;;;;;;;6.96;96.24;101206.38;7396204;19;20022;-73
2023/01/07 08:32:47;;;;;;;2.75;2.47;;;;;;;7.01;95.98;101204.63;7394118;19;20018;-73
2023/01/07 08:35:16;;;;;;;3.38;2.80;;;;;;;7.07;96.04;101201.16;7394223;19;20018;-73
2023/01/07 08:37:45;;;;;;;3.00;2.20;;;;;;;7.14;95.72;101197.66;7395060;19;20384;-72
2023/01/07 08:40:15;;;;;;;3.38;2.35;;;;;;;7.21;95.22;101197.66;7394655;19;20014;-73
2023/01/07 08:42:46;;;;;;;3.33;1.83;;;;;;;7.27;95.23;101197.66;7394160;19;20431;-74
2023/01/07 08:45:14;;;;;;;2.20;2.00;;;;;;;7.32;94.85;101196.78;7394457;19;20026;-74
2023/01/07 08:47:48;;;;;;;5.38;2.95;;;;;;;7.39;94.99;101194.16;7394664;19;20018;-73
2023/01/07 08:50:16;;;;;;;4.93;2.80;;;;;;;7.46;95.06;101201.97;7396082;19;20023;-73
2023/01/07 08:52:47;;;;;;;2.95;2.17;;;;;;;7.52;94.74;101205.47;7393961;19;20403;-73
2023/01/07 08:55:16;;;;;;;2.55;2.10;;;;;;;7.58;94.57;101198.50;7395496;19;20496;-74
2023/01/07 08:57:48;;;;;;;2.72;2.00;;;;;;;7.64;94.30;101200.22;7393813;19;20023;-73
2023/01/07 09:00:18;;;;;;;3.28;2.20;;;;;;;7.67;94.07;101208.03;7395717;19;20014;-73
2023/01/07 09:02:47;;;;;;;5.10;2.45;;;;;;;7.72;93.90;101208.03;7393242;19;20477;-72
2023/01/07 09:05:16;;;;;;;2.53;1.80;;;;;;;7.76;94.05;101201.91;7393403;19;20470;-73
2023/01/07 09:07:44;;;;;;;2.90;2.10;;;;;;;7.80;93.13;101206.28;7393248;19;20427;-74
2023/01/07 09:10:14;;;;;;;3.08;2.35;;;;;;;7.82;93.45;101197.56;7395206;19;20010;-73
2023/01/07 09:12:42;;;;;;;2.22;1.80;;;;;;;7.86;93.28;101206.25;7394971;19;20028;-73
2023/01/07 09:15:14;;;;;;;3.15;2.15;;;;;;;7.89;92.67;101202.78;7392820;19;20066;-73
2023/01/07 09:17:42;;;;;;;2.15;1.73;;;;;;;7.93;93.21;101194.03;7393146;19;20022;-73
2023/01/07 09:20:12;;;;;;;1.95;1.63;;;;;;;7.96;92.74;101194.00;7394382;19;20517;-73
2023/01/07 09:22:40;;;;;;;3.15;2.20;;;;;;;7.99;92.62;101200.09;7392342;19;20022;-72
2023/01/07 09:25:10;;;;;;;2.97;2.00;;;;;;;8.02;92.11;101195.75;7392021;19;20039;-72
2023/01/07 09:27:39;;;;;;;2.92;2.20;;;;;;;8.04;92.45;101196.59;7393827;19;20491;-72
2023/01/07 09:30:09;;;;;;;2.88;2.10;;;;;;;8.09;92.22;101193.09;7391950;19;20019;-72
2023/01/07 09:32:40;;;;;;;2.00;1.80;;;;;;;8.12;91.89;101194.84;7391777;19;20022;-73
2023/01/07 09:35:10;;;;;;;3.42;1.80;;;;;;;8.17;91.89;101185.22;7391925;19;20074;-73
2023/01/07 09:37:39;;;;;;;2.65;1.60;;;;;;;8.20;91.75;101187.84;7396969;19;20015;-73
2023/01/07 09:40:09;;;;;;;1.95;1.60;;;;;;;8.25;91.96;101191.31;7397909;19;20031;-72
2023/01/07 09:42:47;;;;;;;1.98;1.58;;;;;;;8.27;91.47;101188.66;7401186;19;20051;-73
2023/01/07 09:45:20;;;;;;;3.33;2.13;;;;;;;8.29;91.18;101190.41;7398841;19;20097;-73
2023/01/07 09:47:55;;;;;;;3.43;2.13;;;;;;;8.30;91.23;101186.03;7398558;19;20031;-72
2023/01/07 09:50:36;;;;;;;2.63;1.90;;;;;;;8.35;91.16;101192.09;7398837;19;20481;-73
2023/01/07 09:53:08;;;;;;;1.77;1.52;;;;;;;8.38;90.84;101181.63;7398941;19;20031;-73
2023/01/07 09:55:38;;;;;;;1.90;1.42;;;;;;;8.40;91.07;101187.72;7397980;19;20482;-72
2023/01/07 09:58:07;;;;;;;2.08;1.88;;;;;;;8.42;90.71;101178.13;7398265;19;20393;-72
2023/01/07 10:00:40;;;;;;;2.25;1.80;;;;;;;8.43;90.73;101173.78;7398183;19;20388;-72
2023/01/07 10:03:24;;;;;;;2.13;1.70;;;;;;;8.45;90.40;101172.00;7397763;19;20015;-72
2023/01/07 10:06:05;;;;;;;2.15;1.65;;;;;;;8.45;89.60;101170.28;7399558;19;20018;-72
2023/01/07 10:08:44;;;;;;;2.88;1.85;;;;;;;8.46;90.34;101168.56;7400773;19;20014;-73
2023/01/07 10:11:24;;;;;;;3.83;2.28;;;;;;;8.45;90.14;101169.38;7397460;19;20014;-72
2023/01/07 10:14:11;;;;;;;4.40;3.08;;;;;;;8.44;90.41;101172.88;7398126;19;20026;-72
2023/01/07 10:16:50;;;;;;;3.25;2.08;;;;;;;8.44;90.16;101165.03;7397988;19;20014;-72
2023/01/07 10:19:28;;;;;;;5.38;2.97;;;;;;;8.43;90.04;101160.72;7397662;19;20490;-73
2023/01/07 10:22:01;;;;;;;3.88;2.95;;;;;;;8.40;89.95;101156.34;7398321;19;20015;-73
2023/01/07 10:25:01;;;;;;;3.70;3.40;;;;;;;8.46;90.05;101153.72;7397155;19;20501;-72
2023/01/07 10:27:35;;;;;;;2.85;2.45;;;;;;;8.48;90.05;101154.59;7400609;19;20014;-73
2023/01/07 10:30:06;;;;;;;6.15;4.47;;;;;;;8.55;90.09;101144.94;7397750;19;20025;-73
2023/01/07 10:32:36;;;;;;;3.22;2.42;;;;;;;8.59;89.70;101144.06;7398113;19;20019;-73
2023/01/07 10:35:17;;;;;;;4.10;2.50;;;;;;;8.65;89.38;101137.91;7396440;19;20014;-73
2023/01/07 10:37:46;;;;;;;2.70;2.05;;;;;;;8.70;89.47;101140.50;7400061;19;20183;-72
2023/01/07 10:40:29;;;;;;;3.05;2.28;;;;;;;8.77;89.20;101132.59;7397026;19;20023;-73
2023/01/07 10:43:02;;;;;;;3.25;2.20;;;;;;;8.83;89.13;101136.88;7399665;19;20035;-73
2023/01/07 10:45:55;;;;;;;2.92;1.83;;;;;;;8.91;88.73;101134.19;7397191;19;20015;-72
2023/01/07 10:48:49;;;;;;;2.90;2.08;;;;;;;8.98;87.65;101132.41;7398537;19;20031;-69
2023/01/07 10:51:27;;;;;;;;;;;;;;;9.03;86.14;101134.09;7397532;19;20502;-70
2023/01/07 10:54:06;;;;;;;3.38;1.95;;;;;;;9.02;87.94;101119.28;7397527;19;19923;-71
2023/01/07 10:56:39;;;;;;;5.13;2.15;;;;;;;9.12;87.81;101125.28;7398727;19;20040;-72
2023/01/07 10:59:13;;;;;;;2.40;1.70;;;;;;;9.15;88.07;101122.66;7397331;19;20336;-70
2023/01/07 11:01:42;;;;;;;;;;;;;;;9.20;87.15;101112.13;7397486;19;20457;-70
2023/01/07 11:04:15;;;;;;;2.25;1.50;;;;;;;9.23;87.94;101119.97;7397717;19;19938;-71
2023/01/07 11:06:51;;;;;;;2.15;1.30;;;;;;;9.27;87.81;101119.03;7396943;19;20466;-71
2023/01/07 11:09:22;;;;;;;2.92;1.77;;;;;;;9.28;87.41;101108.53;7396598;19;20031;-71
2023/01/07 11:11:52;;;;;;;3.15;1.98;;;;;;;9.31;87.24;101101.56;7396802;19;20036;-71
2023/01/07 11:14:37;;;;;;;1.05;0.95;;;;;;;9.33;86.96;101105.88;7396354;19;20015;-70
2023/01/07 11:17:12;;;;;;;1.30;1.05;;;;;;;9.35;86.82;101101.50;7397239;19;20046;-70
2023/01/07 11:19:47;;;;;;;1.88;1.30;;;;;;;9.35;86.63;101093.66;7399237;19;20026;-70
2023/01/07 11:22:34;;;;;;;2.05;1.40;;;;;;;9.36;86.50;101086.66;7396240;19;20028;-71
2023/01/07 11:25:05;;;;;;;1.60;1.25;;;;;;;9.37;86.57;101084.00;7396413;19;20014;-71
2023/01/07 11:27:35;;;;;;;2.63;1.30;;;;;;;9.38;86.44;101077.03;7397876;19;20014;-70
2023/01/07 11:30:09;;;;;;;1.52;1.40;;;;;;;9.39;86.47;101077.03;7397574;19;20017;-71
2023/01/07 11:32:42;;;;;;;3.78;1.58;;;;;;;9.38;86.46;101075.28;7397219;19;20356;-72
2023/01/07 11:35:22;;;;;;;1.65;1.25;;;;;;;9.42;85.93;101069.13;7396371;19;20376;-71
2023/01/07 11:37:53;;;;;;;1.77;1.48;;;;;;;9.42;86.41;101069.13;7396148;19;20014;-72
2023/01/07 11:40:25;;;;;;;2.65;2.03;;;;;;;9.47;86.16;101069.06;7396123;19;20035;-71
2023/01/07 11:42:57;;;;;;;2.00;1.55;;;;;;;9.47;85.78;101065.59;7394939;19;20474;-72
2023/01/07 11:45:28;;;;;;;2.92;1.50;;;;;;;9.49;85.90;101053.34;7397875;19;20018;-71
2023/01/07 11:48:02;;;;;;;2.50;1.67;;;;;;;9.51;85.94;101052.44;7397726;19;20031;-71
2023/01/07 11:50:38;;;;;;;2.10;1.70;;;;;;;9.54;85.84;101049.78;7395328;19;20014;-71
2023/01/07 11:53:23;;;;;;;2.17;1.42;;;;;;;9.58;85.70;101043.59;7396933;19;20014;-72
2023/01/07 11:56:01;;;;;;;2.45;1.45;;;;;;;9.63;85.70;101040.94;7397473;19;20014;-70
2023/01/07 11:58:31;;;;;;;1.83;1.55;;;;;;;9.67;85.67;101037.38;7397656;19;20018;-71
2023/01/07 12:01:14;;;;;;;3.58;1.40;;;;;;;9.71;85.41;101033.84;7394153;19;20027;-71
2023/01/07 12:03:45;;;;;;;1.85;1.42;;;;;;;9.76;85.42;101039.03;7396368;19;20074;-72